Terminal Aerodrome Forecast
Issued by NWS Blacksburg, VA

Home | Current Version | Previous Version | Text Only | Print | Product List | Glossary On
Versions: 1 2 3 4 5 6 7 8 9 10 11 12 13 14 15 16 17 18 19 20 21 22 23 24 25 26 27 28 29 30 31 32 33 34 35 36 37 38 39 40 41
000
FTUS41 KRNK 051500 AAB
TAFLYH
TAF AMD
KLYH 051500Z 0515/0612 08008KT P6SM BKN007 OVC020
     FM051800 05008G16KT P6SM SCT010 OVC025
     FM052000 04007KT P6SM BKN030
     FM060600 03005KT 6SM BR BKN015=

USA.gov is the U.S. government's official web portal to all federal, state and local government web resources and services.